sensor_id;sensor_type;location;lat;lon;timestamp;P1;durP1;ratioP1;P2;durP2;ratioP2
11490;SDS011;5802;52.832;4.758;2022-08-19T00:01:18;3.70;;;1.73;;
11490;SDS011;5802;52.832;4.758;2022-08-19T00:03:44;2.17;;;1.30;;
11490;SDS011;5802;52.832;4.758;2022-08-19T00:06:11;2.13;;;1.20;;
11490;SDS011;5802;52.832;4.758;2022-08-19T00:08:38;1.55;;;1.40;;
11490;SDS011;5802;52.832;4.758;2022-08-19T00:11:05;3.28;;;1.30;;
11490;SDS011;5802;52.832;4.758;2022-08-19T00:13:33;2.78;;;1.48;;
11490;SDS011;5802;52.832;4.758;2022-08-19T00:16:00;2.47;;;1.42;;
11490;SDS011;5802;52.832;4.758;2022-08-19T00:18:27;2.28;;;1.60;;
11490;SDS011;5802;52.832;4.758;2022-08-19T00:20:54;1.52;;;1.30;;
11490;SDS011;5802;52.832;4.758;2022-08-19T00:23:21;2.67;;;1.58;;
11490;SDS011;5802;52.832;4.758;2022-08-19T00:25:47;1.80;;;1.38;;
11490;SDS011;5802;52.832;4.758;2022-08-19T00:28:14;1.60;;;1.25;;
11490;SDS011;5802;52.832;4.758;2022-08-19T00:30:42;3.67;;;1.55;;
11490;SDS011;5802;52.832;4.758;2022-08-19T00:33:09;2.70;;;1.42;;
11490;SDS011;5802;52.832;4.758;2022-08-19T00:35:36;1.50;;;1.30;;
11490;SDS011;5802;52.832;4.758;2022-08-19T00:38:03;1.40;;;1.23;;
11490;SDS011;5802;52.832;4.758;2022-08-19T00:40:31;3.80;;;1.30;;
11490;SDS011;5802;52.832;4.758;2022-08-19T00:42:58;1.40;;;1.17;;
11490;SDS011;5802;52.832;4.758;2022-08-19T00:45:25;1.80;;;1.35;;
11490;SDS011;5802;52.832;4.758;2022-08-19T00:48:02;2.22;;;1.50;;
11490;SDS011;5802;52.832;4.758;2022-08-19T00:50:29;1.70;;;1.40;;
11490;SDS011;5802;52.832;4.758;2022-08-19T00:52:58;1.55;;;1.20;;
11490;SDS011;5802;52.832;4.758;2022-08-19T00:55:26;2.85;;;1.48;;
11490;SDS011;5802;52.832;4.758;2022-08-19T00:57:56;2.50;;;1.17;;
11490;SDS011;5802;52.832;4.758;2022-08-19T01:00:27;2.65;;;1.20;;
11490;SDS011;5802;52.832;4.758;2022-08-19T01:02:55;1.85;;;1.30;;
11490;SDS011;5802;52.832;4.758;2022-08-19T01:05:25;3.80;;;1.40;;
11490;SDS011;5802;52.832;4.758;2022-08-19T01:07:53;1.67;;;1.42;;
11490;SDS011;5802;52.832;4.758;2022-08-19T01:10:24;2.30;;;1.58;;
11490;SDS011;5802;52.832;4.758;2022-08-19T01:12:53;1.98;;;1.48;;
11490;SDS011;5802;52.832;4.758;2022-08-19T01:15:22;3.53;;;1.40;;
11490;SDS011;5802;52.832;4.758;2022-08-19T01:17:51;1.50;;;1.40;;
11490;SDS011;5802;52.832;4.758;2022-08-19T01:20:21;2.92;;;1.38;;
11490;SDS011;5802;52.832;4.758;2022-08-19T01:22:50;1.42;;;1.33;;
11490;SDS011;5802;52.832;4.758;2022-08-19T01:25:20;1.50;;;1.27;;
11490;SDS011;5802;52.832;4.758;2022-08-19T01:27:50;2.13;;;1.38;;
11490;SDS011;5802;52.832;4.758;2022-08-19T01:30:17;1.70;;;1.50;;
11490;SDS011;5802;52.832;4.758;2022-08-19T01:32:47;2.13;;;1.60;;
11490;SDS011;5802;52.832;4.758;2022-08-19T01:35:14;4.05;;;1.52;;
11490;SDS011;5802;52.832;4.758;2022-08-19T01:37:47;1.60;;;1.30;;
11490;SDS011;5802;52.832;4.758;2022-08-19T01:40:18;2.20;;;1.30;;
11490;SDS011;5802;52.832;4.758;2022-08-19T01:42:46;2.63;;;1.52;;
11490;SDS011;5802;52.832;4.758;2022-08-19T01:45:14;1.58;;;1.30;;
11490;SDS011;5802;52.832;4.758;2022-08-19T01:47:41;2.42;;;1.40;;
11490;SDS011;5802;52.832;4.758;2022-08-19T01:50:09;2.08;;;1.40;;
11490;SDS011;5802;52.832;4.758;2022-08-19T01:52:37;4.43;;;1.42;;
11490;SDS011;5802;52.832;4.758;2022-08-19T01:55:08;2.70;;;1.50;;
11490;SDS011;5802;52.832;4.758;2022-08-19T01:57:36;1.83;;;1.42;;
11490;SDS011;5802;52.832;4.758;2022-08-19T02:00:06;1.95;;;1.40;;
11490;SDS011;5802;52.832;4.758;2022-08-19T02:02:36;2.05;;;1.40;;
11490;SDS011;5802;52.832;4.758;2022-08-19T02:05:03;2.60;;;1.63;;
11490;SDS011;5802;52.832;4.758;2022-08-19T02:07:32;4.03;;;1.75;;
11490;SDS011;5802;52.832;4.758;2022-08-19T02:09:58;1.65;;;1.40;;
11490;SDS011;5802;52.832;4.758;2022-08-19T02:12:29;2.00;;;1.40;;
11490;SDS011;5802;52.832;4.758;2022-08-19T02:14:56;2.20;;;1.48;;
11490;SDS011;5802;52.832;4.758;2022-08-19T02:17:24;1.90;;;1.50;;
11490;SDS011;5802;52.832;4.758;2022-08-19T02:19:51;1.40;;;1.30;;
11490;SDS011;5802;52.832;4.758;2022-08-19T02:22:17;1.90;;;1.42;;
11490;SDS011;5802;52.832;4.758;2022-08-19T02:24:44;1.58;;;1.48;;
11490;SDS011;5802;52.832;4.758;2022-08-19T02:27:12;1.98;;;1.65;;
11490;SDS011;5802;52.832;4.758;2022-08-19T02:29:41;1.50;;;1.40;;
11490;SDS011;5802;52.832;4.758;2022-08-19T02:32:08;2.17;;;1.40;;
11490;SDS011;5802;52.832;4.758;2022-08-19T02:34:34;3.53;;;1.27;;
11490;SDS011;5802;52.832;4.758;2022-08-19T02:37:01;1.75;;;1.20;;
11490;SDS011;5802;52.832;4.758;2022-08-19T02:39:28;1.48;;;1.38;;
11490;SDS011;5802;52.832;4.758;2022-08-19T02:41:54;1.58;;;1.30;;
11490;SDS011;5802;52.832;4.758;2022-08-19T02:44:21;1.95;;;1.40;;
11490;SDS011;5802;52.832;4.758;2022-08-19T02:46:49;1.70;;;1.48;;
11490;SDS011;5802;52.832;4.758;2022-08-19T02:49:16;1.88;;;1.50;;
11490;SDS011;5802;52.832;4.758;2022-08-19T02:51:44;1.83;;;1.73;;
11490;SDS011;5802;52.832;4.758;2022-08-19T02:54:13;2.28;;;1.67;;
11490;SDS011;5802;52.832;4.758;2022-08-19T02:56:41;1.50;;;1.40;;
11490;SDS011;5802;52.832;4.758;2022-08-19T02:59:09;1.52;;;1.40;;
11490;SDS011;5802;52.832;4.758;2022-08-19T03:01:37;1.40;;;1.30;;
11490;SDS011;5802;52.832;4.758;2022-08-19T03:04:08;1.73;;;1.48;;
11490;SDS011;5802;52.832;4.758;2022-08-19T03:06:36;2.33;;;1.65;;
11490;SDS011;5802;52.832;4.758;2022-08-19T03:09:03;1.50;;;1.40;;
11490;SDS011;5802;52.832;4.758;2022-08-19T03:11:31;1.63;;;1.52;;
11490;SDS011;5802;52.832;4.758;2022-08-19T03:13:59;2.38;;;1.60;;
11490;SDS011;5802;52.832;4.758;2022-08-19T03:16:28;1.88;;;1.58;;
11490;SDS011;5802;52.832;4.758;2022-08-19T03:18:56;2.88;;;1.90;;
11490;SDS011;5802;52.832;4.758;2022-08-19T03:21:30;2.22;;;1.30;;
11490;SDS011;5802;52.832;4.758;2022-08-19T03:24:01;2.03;;;1.60;;
11490;SDS011;5802;52.832;4.758;2022-08-19T03:26:30;1.92;;;1.33;;
11490;SDS011;5802;52.832;4.758;2022-08-19T03:28:56;2.13;;;1.70;;
11490;SDS011;5802;52.832;4.758;2022-08-19T03:31:24;1.50;;;1.40;;
11490;SDS011;5802;52.832;4.758;2022-08-19T03:33:52;1.70;;;1.60;;
11490;SDS011;5802;52.832;4.758;2022-08-19T03:36:20;1.60;;;1.50;;
11490;SDS011;5802;52.832;4.758;2022-08-19T03:38:52;2.00;;;1.70;;
11490;SDS011;5802;52.832;4.758;2022-08-19T03:41:21;1.50;;;1.40;;
11490;SDS011;5802;52.832;4.758;2022-08-19T03:43:49;2.35;;;1.65;;
11490;SDS011;5802;52.832;4.758;2022-08-19T03:46:17;4.60;;;1.60;;
11490;SDS011;5802;52.832;4.758;2022-08-19T03:48:46;1.80;;;1.40;;
11490;SDS011;5802;52.832;4.758;2022-08-19T03:51:17;1.90;;;1.65;;
11490;SDS011;5802;52.832;4.758;2022-08-19T03:53:46;1.60;;;1.50;;
11490;SDS011;5802;52.832;4.758;2022-08-19T03:56:15;1.50;;;1.40;;
11490;SDS011;5802;52.832;4.758;2022-08-19T03:58:42;1.70;;;1.60;;
11490;SDS011;5802;52.832;4.758;2022-08-19T04:01:10;3.03;;;1.80;;
11490;SDS011;5802;52.832;4.758;2022-08-19T04:03:39;2.60;;;1.65;;
11490;SDS011;5802;52.832;4.758;2022-08-19T04:06:10;2.30;;;1.65;;
11490;SDS011;5802;52.832;4.758;2022-08-19T04:08:38;1.88;;;1.63;;
11490;SDS011;5802;52.832;4.758;2022-08-19T04:11:12;2.10;;;1.90;;
11490;SDS011;5802;52.832;4.758;2022-08-19T04:13:42;2.05;;;1.80;;
11490;SDS011;5802;52.832;4.758;2022-08-19T04:16:09;1.70;;;1.60;;
11490;SDS011;5802;52.832;4.758;2022-08-19T04:18:37;2.10;;;1.80;;
11490;SDS011;5802;52.832;4.758;2022-08-19T04:21:05;2.03;;;1.70;;
11490;SDS011;5802;52.832;4.758;2022-08-19T04:23:34;1.80;;;1.70;;
11490;SDS011;5802;52.832;4.758;2022-08-19T04:26:02;4.70;;;1.92;;
11490;SDS011;5802;52.832;4.758;2022-08-19T04:28:29;1.77;;;1.67;;
11490;SDS011;5802;52.832;4.758;2022-08-19T04:30:57;2.70;;;1.90;;
11490;SDS011;5802;52.832;4.758;2022-08-19T04:33:24;2.60;;;1.90;;
11490;SDS011;5802;52.832;4.758;2022-08-19T04:35:52;1.90;;;1.70;;
11490;SDS011;5802;52.832;4.758;2022-08-19T04:38:19;3.80;;;1.70;;
11490;SDS011;5802;52.832;4.758;2022-08-19T04:40:49;2.47;;;1.90;;
11490;SDS011;5802;52.832;4.758;2022-08-19T04:43:35;2.25;;;1.88;;
11490;SDS011;5802;52.832;4.758;2022-08-19T04:46:05;2.95;;;1.75;;
11490;SDS011;5802;52.832;4.758;2022-08-19T04:48:33;2.10;;;1.90;;
11490;SDS011;5802;52.832;4.758;2022-08-19T04:51:00;2.13;;;1.70;;
11490;SDS011;5802;52.832;4.758;2022-08-19T04:53:31;3.97;;;2.10;;
11490;SDS011;5802;52.832;4.758;2022-08-19T04:56:03;2.30;;;2.10;;
11490;SDS011;5802;52.832;4.758;2022-08-19T04:58:32;2.28;;;2.00;;
11490;SDS011;5802;52.832;4.758;2022-08-19T05:01:00;2.72;;;2.30;;
11490;SDS011;5802;52.832;4.758;2022-08-19T05:03:29;2.17;;;1.98;;
11490;SDS011;5802;52.832;4.758;2022-08-19T05:05:58;2.03;;;1.83;;
11490;SDS011;5802;52.832;4.758;2022-08-19T05:08:33;2.22;;;1.83;;
11490;SDS011;5802;52.832;4.758;2022-08-19T05:11:01;2.47;;;1.83;;
11490;SDS011;5802;52.832;4.758;2022-08-19T05:13:33;3.38;;;2.00;;
11490;SDS011;5802;52.832;4.758;2022-08-19T05:16:00;2.88;;;2.00;;
11490;SDS011;5802;52.832;4.758;2022-08-19T05:18:28;2.20;;;2.00;;
11490;SDS011;5802;52.832;4.758;2022-08-19T05:21:13;2.00;;;1.80;;
11490;SDS011;5802;52.832;4.758;2022-08-19T05:23:59;2.45;;;2.10;;
11490;SDS011;5802;52.832;4.758;2022-08-19T05:26:27;4.22;;;2.20;;
11490;SDS011;5802;52.832;4.758;2022-08-19T05:28:53;2.30;;;1.85;;
11490;SDS011;5802;52.832;4.758;2022-08-19T05:31:21;2.80;;;2.00;;
11490;SDS011;5802;52.832;4.758;2022-08-19T05:33:49;4.57;;;2.15;;
11490;SDS011;5802;52.832;4.758;2022-08-19T05:36:16;3.45;;;2.40;;
11490;SDS011;5802;52.832;4.758;2022-08-19T05:38:43;2.63;;;1.98;;
11490;SDS011;5802;52.832;4.758;2022-08-19T05:41:11;2.97;;;2.20;;
11490;SDS011;5802;52.832;4.758;2022-08-19T05:43:39;2.80;;;2.00;;
11490;SDS011;5802;52.832;4.758;2022-08-19T05:46:08;2.92;;;2.38;;
11490;SDS011;5802;52.832;4.758;2022-08-19T05:48:43;3.38;;;2.35;;
11490;SDS011;5802;52.832;4.758;2022-08-19T05:51:11;4.32;;;2.85;;
11490;SDS011;5802;52.832;4.758;2022-08-19T05:53:38;5.20;;;2.63;;
11490;SDS011;5802;52.832;4.758;2022-08-19T05:56:05;4.57;;;2.47;;
11490;SDS011;5802;52.832;4.758;2022-08-19T05:58:32;2.90;;;2.58;;
11490;SDS011;5802;52.832;4.758;2022-08-19T06:00:59;2.88;;;2.33;;
11490;SDS011;5802;52.832;4.758;2022-08-19T06:03:29;3.05;;;2.60;;
11490;SDS011;5802;52.832;4.758;2022-08-19T06:05:56;3.22;;;2.50;;
11490;SDS011;5802;52.832;4.758;2022-08-19T06:08:25;3.65;;;2.10;;
11490;SDS011;5802;52.832;4.758;2022-08-19T06:10:52;3.03;;;2.15;;
11490;SDS011;5802;52.832;4.758;2022-08-19T06:13:19;3.25;;;2.38;;
11490;SDS011;5802;52.832;4.758;2022-08-19T06:15:46;2.88;;;2.10;;
11490;SDS011;5802;52.832;4.758;2022-08-19T06:18:13;3.17;;;2.25;;
11490;SDS011;5802;52.832;4.758;2022-08-19T06:20:40;2.72;;;2.25;;
11490;SDS011;5802;52.832;4.758;2022-08-19T06:23:07;5.72;;;2.40;;
11490;SDS011;5802;52.832;4.758;2022-08-19T06:25:36;2.42;;;2.22;;
11490;SDS011;5802;52.832;4.758;2022-08-19T06:28:04;2.95;;;2.15;;
11490;SDS011;5802;52.832;4.758;2022-08-19T06:30:31;2.40;;;2.20;;
11490;SDS011;5802;52.832;4.758;2022-08-19T06:32:58;2.67;;;2.30;;
11490;SDS011;5802;52.832;4.758;2022-08-19T06:35:25;4.43;;;2.38;;
11490;SDS011;5802;52.832;4.758;2022-08-19T06:37:55;3.53;;;2.40;;
11490;SDS011;5802;52.832;4.758;2022-08-19T06:40:22;3.30;;;2.47;;
11490;SDS011;5802;52.832;4.758;2022-08-19T06:42:50;3.85;;;2.38;;
11490;SDS011;5802;52.832;4.758;2022-08-19T06:45:17;3.05;;;2.47;;
11490;SDS011;5802;52.832;4.758;2022-08-19T06:47:45;3.40;;;2.38;;
11490;SDS011;5802;52.832;4.758;2022-08-19T06:50:13;5.57;;;2.60;;
11490;SDS011;5802;52.832;4.758;2022-08-19T06:52:40;3.15;;;2.30;;
11490;SDS011;5802;52.832;4.758;2022-08-19T06:55:07;2.78;;;2.50;;
11490;SDS011;5802;52.832;4.758;2022-08-19T06:57:34;2.38;;;2.17;;
11490;SDS011;5802;52.832;4.758;2022-08-19T07:00:03;3.63;;;2.50;;
11490;SDS011;5802;52.832;4.758;2022-08-19T07:02:35;3.58;;;2.60;;
11490;SDS011;5802;52.832;4.758;2022-08-19T07:05:03;3.25;;;2.50;;
11490;SDS011;5802;52.832;4.758;2022-08-19T07:07:31;3.08;;;2.30;;
11490;SDS011;5802;52.832;4.758;2022-08-19T07:09:58;3.60;;;2.58;;
11490;SDS011;5802;52.832;4.758;2022-08-19T07:12:25;3.17;;;2.83;;
11490;SDS011;5802;52.832;4.758;2022-08-19T07:14:52;3.10;;;2.42;;
11490;SDS011;5802;52.832;4.758;2022-08-19T07:17:20;5.15;;;3.08;;
11490;SDS011;5802;52.832;4.758;2022-08-19T07:19:47;6.55;;;2.90;;
11490;SDS011;5802;52.832;4.758;2022-08-19T07:22:15;3.15;;;2.78;;
11490;SDS011;5802;52.832;4.758;2022-08-19T07:24:43;4.93;;;3.20;;
11490;SDS011;5802;52.832;4.758;2022-08-19T07:27:09;6.05;;;2.88;;
11490;SDS011;5802;52.832;4.758;2022-08-19T07:29:36;4.13;;;2.97;;
11490;SDS011;5802;52.832;4.758;2022-08-19T07:32:03;5.60;;;3.15;;
11490;SDS011;5802;52.832;4.758;2022-08-19T07:34:32;5.97;;;3.20;;
11490;SDS011;5802;52.832;4.758;2022-08-19T07:37:02;4.85;;;3.30;;
11490;SDS011;5802;52.832;4.758;2022-08-19T07:39:31;5.25;;;3.10;;
11490;SDS011;5802;52.832;4.758;2022-08-19T07:42:00;5.25;;;3.45;;
11490;SDS011;5802;52.832;4.758;2022-08-19T07:44:31;3.33;;;2.92;;
11490;SDS011;5802;52.832;4.758;2022-08-19T07:46:59;5.00;;;3.35;;
11490;SDS011;5802;52.832;4.758;2022-08-19T07:49:27;6.20;;;3.22;;
11490;SDS011;5802;52.832;4.758;2022-08-19T07:51:56;4.07;;;2.88;;
11490;SDS011;5802;52.832;4.758;2022-08-19T07:54:26;4.90;;;3.10;;
11490;SDS011;5802;52.832;4.758;2022-08-19T07:56:56;6.50;;;3.45;;
11490;SDS011;5802;52.832;4.758;2022-08-19T07:59:23;7.72;;;3.83;;
11490;SDS011;5802;52.832;4.758;2022-08-19T08:01:50;4.65;;;3.20;;
11490;SDS011;5802;52.832;4.758;2022-08-19T08:04:18;5.28;;;3.30;;
11490;SDS011;5802;52.832;4.758;2022-08-19T08:07:04;4.40;;;3.30;;
11490;SDS011;5802;52.832;4.758;2022-08-19T08:09:50;5.43;;;3.58;;
11490;SDS011;5802;52.832;4.758;2022-08-19T08:12:18;5.28;;;3.40;;
11490;SDS011;5802;52.832;4.758;2022-08-19T08:14:48;5.57;;;3.38;;
11490;SDS011;5802;52.832;4.758;2022-08-19T08:17:16;5.90;;;3.22;;
11490;SDS011;5802;52.832;4.758;2022-08-19T08:19:45;4.35;;;3.50;;
11490;SDS011;5802;52.832;4.758;2022-08-19T08:22:17;3.80;;;3.13;;
11490;SDS011;5802;52.832;4.758;2022-08-19T08:25:00;5.18;;;3.50;;
11490;SDS011;5802;52.832;4.758;2022-08-19T08:27:29;8.15;;;3.92;;
11490;SDS011;5802;52.832;4.758;2022-08-19T08:29:56;4.97;;;3.30;;
11490;SDS011;5802;52.832;4.758;2022-08-19T08:32:23;4.30;;;3.67;;
11490;SDS011;5802;52.832;4.758;2022-08-19T08:34:49;6.00;;;3.50;;
11490;SDS011;5802;52.832;4.758;2022-08-19T08:37:17;7.95;;;3.55;;
11490;SDS011;5802;52.832;4.758;2022-08-19T08:39:44;7.35;;;3.63;;
11490;SDS011;5802;52.832;4.758;2022-08-19T08:42:12;3.30;;;3.00;;
11490;SDS011;5802;52.832;4.758;2022-08-19T08:44:48;4.40;;;3.40;;
11490;SDS011;5802;52.832;4.758;2022-08-19T08:47:19;5.65;;;3.47;;
11490;SDS011;5802;52.832;4.758;2022-08-19T08:49:49;5.88;;;3.17;;
11490;SDS011;5802;52.832;4.758;2022-08-19T08:52:22;5.65;;;3.30;;
11490;SDS011;5802;52.832;4.758;2022-08-19T08:54:52;4.68;;;3.10;;
11490;SDS011;5802;52.832;4.758;2022-08-19T08:57:23;4.88;;;3.22;;
11490;SDS011;5802;52.832;4.758;2022-08-19T08:59:54;5.05;;;3.10;;
11490;SDS011;5802;52.832;4.758;2022-08-19T09:02:24;3.80;;;3.20;;
11490;SDS011;5802;52.832;4.758;2022-08-19T09:04:51;5.80;;;3.70;;
11490;SDS011;5802;52.832;4.758;2022-08-19T09:07:26;5.93;;;3.42;;
11490;SDS011;5802;52.832;4.758;2022-08-19T09:10:02;6.38;;;3.20;;
11490;SDS011;5802;52.832;4.758;2022-08-19T09:12:40;4.20;;;3.08;;
11490;SDS011;5802;52.832;4.758;2022-08-19T09:15:15;4.55;;;3.60;;
11490;SDS011;5802;52.832;4.758;2022-08-19T09:17:44;5.93;;;3.40;;
11490;SDS011;5802;52.832;4.758;2022-08-19T09:20:14;5.03;;;3.20;;
11490;SDS011;5802;52.832;4.758;2022-08-19T09:22:45;4.82;;;3.03;;
11490;SDS011;5802;52.832;4.758;2022-08-19T09:25:15;3.55;;;3.08;;
11490;SDS011;5802;52.832;4.758;2022-08-19T09:27:43;4.70;;;3.55;;
11490;SDS011;5802;52.832;4.758;2022-08-19T09:30:13;3.97;;;3.45;;
11490;SDS011;5802;52.832;4.758;2022-08-19T09:32:41;7.60;;;3.30;;
11490;SDS011;5802;52.832;4.758;2022-08-19T09:35:08;4.18;;;3.15;;
11490;SDS011;5802;52.832;4.758;2022-08-19T09:37:35;4.55;;;3.30;;
11490;SDS011;5802;52.832;4.758;2022-08-19T09:40:04;3.88;;;3.22;;
11490;SDS011;5802;52.832;4.758;2022-08-19T09:42:32;5.60;;;3.20;;
11490;SDS011;5802;52.832;4.758;2022-08-19T09:44:59;4.60;;;3.28;;
11490;SDS011;5802;52.832;4.758;2022-08-19T09:47:26;5.40;;;3.45;;
11490;SDS011;5802;52.832;4.758;2022-08-19T09:49:53;3.97;;;3.10;;
11490;SDS011;5802;52.832;4.758;2022-08-19T09:52:20;4.78;;;3.00;;
11490;SDS011;5802;52.832;4.758;2022-08-19T09:54:47;4.55;;;3.40;;
11490;SDS011;5802;52.832;4.758;2022-08-19T09:57:19;3.97;;;3.30;;
11490;SDS011;5802;52.832;4.758;2022-08-19T09:59:46;4.18;;;3.00;;
11490;SDS011;5802;52.832;4.758;2022-08-19T10:02:13;5.07;;;3.15;;
11490;SDS011;5802;52.832;4.758;2022-08-19T10:04:39;5.32;;;3.05;;
11490;SDS011;5802;52.832;4.758;2022-08-19T10:07:24;4.68;;;3.05;;
11490;SDS011;5802;52.832;4.758;2022-08-19T10:09:50;4.15;;;2.90;;
11490;SDS011;5802;52.832;4.758;2022-08-19T10:12:17;4.55;;;3.30;;
11490;SDS011;5802;52.832;4.758;2022-08-19T10:14:45;5.72;;;2.78;;
11490;SDS011;5802;52.832;4.758;2022-08-19T10:17:12;8.57;;;3.47;;
11490;SDS011;5802;52.832;4.758;2022-08-19T10:19:39;9.48;;;3.35;;
11490;SDS011;5802;52.832;4.758;2022-08-19T10:22:06;4.15;;;3.20;;
11490;SDS011;5802;52.832;4.758;2022-08-19T10:24:33;5.50;;;3.10;;
11490;SDS011;5802;52.832;4.758;2022-08-19T10:27:00;4.15;;;2.97;;
11490;SDS011;5802;52.832;4.758;2022-08-19T10:29:28;4.63;;;3.35;;
11490;SDS011;5802;52.832;4.758;2022-08-19T10:31:58;4.75;;;3.40;;
11490;SDS011;5802;52.832;4.758;2022-08-19T10:34:25;5.28;;;3.40;;
11490;SDS011;5802;52.832;4.758;2022-08-19T10:36:52;5.57;;;3.30;;
11490;SDS011;5802;52.832;4.758;2022-08-19T10:39:18;7.47;;;3.33;;
11490;SDS011;5802;52.832;4.758;2022-08-19T10:41:45;3.55;;;3.00;;
11490;SDS011;5802;52.832;4.758;2022-08-19T10:44:12;5.68;;;3.20;;
11490;SDS011;5802;52.832;4.758;2022-08-19T10:46:41;4.60;;;3.33;;
11490;SDS011;5802;52.832;4.758;2022-08-19T10:49:13;4.18;;;3.10;;
11490;SDS011;5802;52.832;4.758;2022-08-19T10:51:40;4.03;;;3.22;;
11490;SDS011;5802;52.832;4.758;2022-08-19T10:54:25;4.05;;;3.30;;
11490;SDS011;5802;52.832;4.758;2022-08-19T10:57:13;5.55;;;3.67;;
11490;SDS011;5802;52.832;4.758;2022-08-19T10:59:39;4.05;;;3.00;;
11490;SDS011;5802;52.832;4.758;2022-08-19T11:02:07;3.45;;;2.97;;
11490;SDS011;5802;52.832;4.758;2022-08-19T11:04:37;5.00;;;3.17;;
11490;SDS011;5802;52.832;4.758;2022-08-19T11:07:04;5.88;;;3.33;;
11490;SDS011;5802;52.832;4.758;2022-08-19T11:09:36;5.40;;;3.30;;
11490;SDS011;5802;52.832;4.758;2022-08-19T11:12:05;4.47;;;3.13;;
11490;SDS011;5802;52.832;4.758;2022-08-19T11:14:33;4.60;;;2.92;;
11490;SDS011;5802;52.832;4.758;2022-08-19T11:17:00;6.40;;;3.53;;
11490;SDS011;5802;52.832;4.758;2022-08-19T11:19:27;3.45;;;3.00;;
11490;SDS011;5802;52.832;4.758;2022-08-19T11:21:55;3.28;;;2.92;;
11490;SDS011;5802;52.832;4.758;2022-08-19T11:24:22;3.20;;;2.85;;
11490;SDS011;5802;52.832;4.758;2022-08-19T11:26:51;5.03;;;2.80;;
11490;SDS011;5802;52.832;4.758;2022-08-19T11:29:22;6.78;;;3.00;;
11490;SDS011;5802;52.832;4.758;2022-08-19T11:31:50;3.45;;;2.72;;
11490;SDS011;5802;52.832;4.758;2022-08-19T11:34:19;5.28;;;3.20;;
11490;SDS011;5802;52.832;4.758;2022-08-19T11:36:48;3.70;;;3.08;;
11490;SDS011;5802;52.832;4.758;2022-08-19T11:39:18;3.47;;;2.70;;
11490;SDS011;5802;52.832;4.758;2022-08-19T11:41:47;4.22;;;2.55;;
11490;SDS011;5802;52.832;4.758;2022-08-19T11:44:14;2.97;;;2.45;;
11490;SDS011;5802;52.832;4.758;2022-08-19T11:46:42;3.40;;;2.60;;
11490;SDS011;5802;52.832;4.758;2022-08-19T11:49:11;4.05;;;2.58;;
11490;SDS011;5802;52.832;4.758;2022-08-19T11:51:39;2.97;;;2.33;;
11490;SDS011;5802;52.832;4.758;2022-08-19T11:54:08;2.65;;;2.45;;
11490;SDS011;5802;52.832;4.758;2022-08-19T11:56:37;3.15;;;2.72;;
11490;SDS011;5802;52.832;4.758;2022-08-19T11:59:04;4.75;;;2.55;;
11490;SDS011;5802;52.832;4.758;2022-08-19T12:01:32;2.83;;;2.42;;
11490;SDS011;5802;52.832;4.758;2022-08-19T12:04:00;2.80;;;2.33;;
11490;SDS011;5802;52.832;4.758;2022-08-19T12:06:30;3.53;;;2.88;;
11490;SDS011;5802;52.832;4.758;2022-08-19T12:08:59;2.50;;;2.30;;
11490;SDS011;5802;52.832;4.758;2022-08-19T12:11:29;4.38;;;2.45;;
11490;SDS011;5802;52.832;4.758;2022-08-19T12:13:57;3.28;;;2.35;;
11490;SDS011;5802;52.832;4.758;2022-08-19T12:16:25;3.00;;;2.53;;
11490;SDS011;5802;52.832;4.758;2022-08-19T12:18:53;3.10;;;2.80;;
11490;SDS011;5802;52.832;4.758;2022-08-19T12:21:25;3.92;;;2.35;;
11490;SDS011;5802;52.832;4.758;2022-08-19T12:23:54;5.30;;;2.60;;
11490;SDS011;5802;52.832;4.758;2022-08-19T12:26:22;5.22;;;2.78;;
11490;SDS011;5802;52.832;4.758;2022-08-19T12:28:49;4.40;;;2.53;;
11490;SDS011;5802;52.832;4.758;2022-08-19T12:31:17;4.88;;;2.70;;
11490;SDS011;5802;52.832;4.758;2022-08-19T12:33:45;3.40;;;2.30;;
11490;SDS011;5802;52.832;4.758;2022-08-19T12:36:13;3.28;;;2.58;;
11490;SDS011;5802;52.832;4.758;2022-08-19T12:38:42;4.50;;;2.67;;
11490;SDS011;5802;52.832;4.758;2022-08-19T12:41:09;3.80;;;2.60;;
11490;SDS011;5802;52.832;4.758;2022-08-19T12:43:37;2.80;;;2.50;;
11490;SDS011;5802;52.832;4.758;2022-08-19T12:46:06;3.92;;;2.47;;
11490;SDS011;5802;52.832;4.758;2022-08-19T12:48:34;3.83;;;2.50;;
11490;SDS011;5802;52.832;4.758;2022-08-19T12:51:05;3.97;;;2.60;;
11490;SDS011;5802;52.832;4.758;2022-08-19T12:53:33;4.30;;;2.70;;
11490;SDS011;5802;52.832;4.758;2022-08-19T12:56:00;4.15;;;2.78;;
11490;SDS011;5802;52.832;4.758;2022-08-19T12:58:28;2.67;;;2.20;;
11490;SDS011;5802;52.832;4.758;2022-08-19T13:00:55;4.00;;;2.20;;
11490;SDS011;5802;52.832;4.758;2022-08-19T13:03:22;3.45;;;2.50;;
11490;SDS011;5802;52.832;4.758;2022-08-19T13:05:55;5.82;;;2.70;;
11490;SDS011;5802;52.832;4.758;2022-08-19T13:08:22;2.72;;;2.33;;
11490;SDS011;5802;52.832;4.758;2022-08-19T13:10:48;3.03;;;2.30;;
11490;SDS011;5802;52.832;4.758;2022-08-19T13:13:15;2.92;;;2.38;;
11490;SDS011;5802;52.832;4.758;2022-08-19T13:15:42;4.15;;;2.30;;
11490;SDS011;5802;52.832;4.758;2022-08-19T13:18:10;2.72;;;2.30;;
11490;SDS011;5802;52.832;4.758;2022-08-19T13:20:38;3.10;;;2.40;;
11490;SDS011;5802;52.832;4.758;2022-08-19T13:23:07;2.65;;;2.45;;
11490;SDS011;5802;52.832;4.758;2022-08-19T13:25:34;2.75;;;2.15;;
11490;SDS011;5802;52.832;4.758;2022-08-19T13:28:02;3.08;;;2.33;;
11490;SDS011;5802;52.832;4.758;2022-08-19T13:30:31;2.60;;;2.10;;
11490;SDS011;5802;52.832;4.758;2022-08-19T13:33:15;2.47;;;2.22;;
11490;SDS011;5802;52.832;4.758;2022-08-19T13:35:44;2.47;;;2.28;;
11490;SDS011;5802;52.832;4.758;2022-08-19T13:38:14;2.80;;;2.40;;
11490;SDS011;5802;52.832;4.758;2022-08-19T13:40:42;3.05;;;2.40;;
11490;SDS011;5802;52.832;4.758;2022-08-19T13:43:09;2.10;;;1.90;;
11490;SDS011;5802;52.832;4.758;2022-08-19T13:45:35;3.10;;;2.33;;
11490;SDS011;5802;52.832;4.758;2022-08-19T13:48:03;2.72;;;2.15;;
11490;SDS011;5802;52.832;4.758;2022-08-19T13:50:34;2.53;;;2.22;;
11490;SDS011;5802;52.832;4.758;2022-08-19T13:53:05;3.00;;;2.28;;
11490;SDS011;5802;52.832;4.758;2022-08-19T13:55:33;2.83;;;2.10;;
11490;SDS011;5802;52.832;4.758;2022-08-19T13:58:02;2.95;;;1.70;;
11490;SDS011;5802;52.832;4.758;2022-08-19T14:00:31;2.13;;;1.92;;
11490;SDS011;5802;52.832;4.758;2022-08-19T14:03:00;2.50;;;2.05;;
11490;SDS011;5802;52.832;4.758;2022-08-19T14:05:29;3.13;;;2.05;;
11490;SDS011;5802;52.832;4.758;2022-08-19T14:07:56;3.90;;;2.15;;
11490;SDS011;5802;52.832;4.758;2022-08-19T14:10:23;2.92;;;2.15;;
11490;SDS011;5802;52.832;4.758;2022-08-19T14:12:53;3.55;;;2.05;;
11490;SDS011;5802;52.832;4.758;2022-08-19T14:15:23;2.47;;;1.92;;
11490;SDS011;5802;52.832;4.758;2022-08-19T14:17:50;2.17;;;1.95;;
11490;SDS011;5802;52.832;4.758;2022-08-19T14:20:18;3.33;;;2.10;;
11490;SDS011;5802;52.832;4.758;2022-08-19T14:22:46;3.03;;;1.98;;
11490;SDS011;5802;52.832;4.758;2022-08-19T14:25:16;2.65;;;2.00;;
11490;SDS011;5802;52.832;4.758;2022-08-19T14:27:45;2.95;;;2.40;;
11490;SDS011;5802;52.832;4.758;2022-08-19T14:30:15;3.33;;;2.28;;
11490;SDS011;5802;52.832;4.758;2022-08-19T14:32:43;4.68;;;2.30;;
11490;SDS011;5802;52.832;4.758;2022-08-19T14:35:10;2.30;;;1.85;;
11490;SDS011;5802;52.832;4.758;2022-08-19T14:37:39;3.30;;;2.58;;
11490;SDS011;5802;52.832;4.758;2022-08-19T14:40:07;3.20;;;2.15;;
11490;SDS011;5802;52.832;4.758;2022-08-19T14:42:35;2.67;;;1.98;;
11490;SDS011;5802;52.832;4.758;2022-08-19T14:45:02;3.72;;;2.17;;
11490;SDS011;5802;52.832;4.758;2022-08-19T14:47:32;2.58;;;2.00;;
11490;SDS011;5802;52.832;4.758;2022-08-19T14:49:59;2.90;;;2.10;;
11490;SDS011;5802;52.832;4.758;2022-08-19T14:52:25;2.42;;;1.90;;
11490;SDS011;5802;52.832;4.758;2022-08-19T14:54:52;2.10;;;1.80;;
11490;SDS011;5802;52.832;4.758;2022-08-19T14:57:19;2.55;;;2.00;;
11490;SDS011;5802;52.832;4.758;2022-08-19T14:59:46;2.30;;;1.88;;
11490;SDS011;5802;52.832;4.758;2022-08-19T15:02:12;2.30;;;2.05;;
11490;SDS011;5802;52.832;4.758;2022-08-19T15:04:40;2.70;;;1.90;;
11490;SDS011;5802;52.832;4.758;2022-08-19T15:07:08;2.47;;;1.80;;
11490;SDS011;5802;52.832;4.758;2022-08-19T15:09:35;2.10;;;1.67;;